Catàleg de serveis del Meteocat

Dades de l'estació automàtica Organyà

?
?
Resum diari 23:00 TU
Dades diàries de l'estació meteorològica
Temperatura mitjana 5.7 °C
Temperatura màxima 7.2 °C 12:38 TU
Temperatura mínima 4.4 °C 21:53 TU
Humitat relativa mitjana 96%
Precipitació acumulada 5.4 mm
Ratxa màxima del vent (10 m) 10.8 km/h - 308º 21:28 TU
Pressió atmosfèrica mitjana 1002.0 hPa
Irradiació solar global 2.3 MJ/m2

El tram horari està expressat en Temps Universal (TU). Cal sumar una hora en horari d'hivern i dues en horari d'estiu per passar a l'hora oficial.

Organyà

Metadades estació meteorol´gica
Municipi Organyà
Comarca Alt Urgell
Altitud 566 m
Data alta 16.01.1996
Estat actual Operativa
Dades de període
Període
TU
TM
°C
TX
°C
TN
°C
HRM
%
PPT
mm
VVM (10 m)
km/h
DVM (10 m)
graus
VVX (10 m)
km/h
PM
hPa
RS
W/m2
00:00 - 00:30 5.9 6.0 5.9 98 0.0 2.2 303 4.7 1000.6 0
00:30 - 01:00 5.9 6.0 5.7 98 0.0 1.1 79 3.6 1000.4 0
01:00 - 01:30 5.8 5.9 5.5 98 0.0 1.4 157 4.3 1000.4 0
01:30 - 02:00 5.5 5.6 5.4 98 0.0 2.9 200 5.8 1000.5 0
02:00 - 02:30 5.4 5.6 5.2 99 0.0 2.2 251 5.0 1000.5 0
02:30 - 03:00 5.2 5.2 5.2 99 0.0 2.9 170 6.1 1000.6 0
03:00 - 03:30 5.0 5.1 4.9 99 0.0 1.4 214 3.6 1000.4 0
03:30 - 04:00 5.1 5.1 4.9 99 0.0 3.2 190 6.8 1000.6 0
04:00 - 04:30 4.9 4.9 4.8 99 0.0 4.0 207 6.8 1000.7 0
04:30 - 05:00 4.8 4.9 4.8 99 0.0 0.7 145 2.5 1000.7 0
05:00 - 05:30 4.9 5.0 4.9 99 0.0 1.1 60 3.6 1001.0 0
05:30 - 06:00 5.0 5.0 4.8 99 0.0 2.2 32 5.0 1001.1 0
06:00 - 06:30 4.8 4.8 4.7 97 0.0 2.5 26 8.3 1001.4 0
06:30 - 07:00 4.8 4.9 4.7 95 0.1 4.7 26 7.9 1001.5 10
07:00 - 07:30 4.9 5.0 4.8 95 0.0 2.5 17 6.8 1001.7 17
07:30 - 08:00 5.1 5.2 4.9 95 0.1 3.2 11 6.1 1002.0 49
08:00 - 08:30 5.4 5.6 5.2 94 0.0 2.2 7 4.7 1001.9 62
08:30 - 09:00 5.6 5.7 5.5 94 0.0 1.8 131 5.4 1002.1 65
09:00 - 09:30 5.8 6.2 5.7 94 0.2 1.4 46 5.0 1002.2 95
09:30 - 10:00 6.1 6.1 6.0 92 0.0 1.4 35 4.0 1002.4 86
10:00 - 10:30 6.1 6.1 6.0 92 0.0 0.7 154 2.5 1002.5 60
10:30 - 11:00 6.1 6.5 6.0 93 0.1 1.4 74 2.9 1002.5 78
11:00 - 11:30 6.5 6.5 6.4 95 0.1 1.8 27 5.8 1002.3 78
11:30 - 12:00 6.5 6.6 6.4 94 0.1 5.4 18 9.0 1002.0 85
12:00 - 12:30 6.8 7.0 6.6 92 0.0 2.9 20 5.8 1001.8 119
12:30 - 13:00 7.0 7.2 6.9 90 0.0 2.9 17 5.8 1001.4 86
13:00 - 13:30 6.9 6.9 6.8 90 0.2 3.2 47 6.5 1001.2 67
13:30 - 14:00 6.8 6.9 6.7 90 0.3 2.5 27 7.9 1001.1 48
14:00 - 14:30 6.6 6.7 6.5 93 0.8 2.5 25 4.3 1001.4 39
14:30 - 15:00 6.4 6.5 6.3 95 0.8 1.8 1 4.7 1001.5 33
15:00 - 15:30 6.4 6.4 6.3 96 0.1 2.5 344 5.0 1001.4 21
15:30 - 16:00 6.3 6.3 6.2 96 0.4 1.1 321 3.2 1001.4 18
16:00 - 16:30 6.3 6.3 6.3 96 0.1 1.1 319 3.2 1001.6 11
16:30 - 17:00 6.3 6.3 6.3 97 0.5 1.8 351 5.4 1001.6 10
17:00 - 17:30 6.3 6.4 6.3 97 0.7 1.8 238 5.8 1002.0 10
17:30 - 18:00 6.3 6.3 6.2 98 0.6 2.9 202 5.8 1002.5 10
18:00 - 18:30 6.2 6.3 6.2 98 0.2 1.4 197 4.3 1002.4 10
18:30 - 19:00 6.0 6.1 5.8 98 0.0 2.5 317 6.1 1002.6 9
19:00 - 19:30 5.8 5.9 5.6 98 0.0 3.2 26 7.2 1002.9 9
19:30 - 20:00 5.6 5.7 5.6 97 0.0 3.2 201 7.2 1003.5 9
20:00 - 20:30 5.6 5.7 5.6 98 0.0 1.1 195 3.6 1003.9 10
20:30 - 21:00 5.4 5.6 5.0 98 0.0 4.0 324 8.6 1004.3 10
21:00 - 21:30 4.9 5.0 4.7 98 0.0 5.8 312 10.8 1004.5 9
21:30 - 22:00 4.6 4.7 4.4 98 0.0 2.9 310 7.2 1004.8 9
22:00 - 22:30 4.8 4.9 4.7 98 0.0 2.5 350 5.0 1005.2 10
22:30 - 23:00 4.9 5.0 4.8 98 0.0 2.2 344 7.9 1005.3 10
23:00 - 23:30 4.7 4.8 4.5 98 0.0 2.5 171 6.8 1005.6 9

Les dades en taronja només han passat un control de qualitat automàtic. Resta pendent la seva validació definitiva.